createdAt,value
2019-04-06T00:01:59.947Z,6.72
2019-04-06T00:04:33.978Z,7.47
2019-04-06T00:07:08.455Z,7.90
2019-04-06T00:09:42.384Z,8.00
2019-04-06T00:12:16.910Z,7.10
2019-04-06T00:14:51.174Z,7.80
2019-04-06T00:17:25.576Z,8.08
2019-04-06T00:19:59.671Z,8.03
2019-04-06T00:22:33.843Z,8.00
2019-04-06T00:25:08.269Z,8.25
2019-04-06T00:27:42.269Z,10.13
2019-04-06T00:30:16.924Z,8.48
2019-04-06T00:33:07.014Z,9.30
2019-04-06T00:35:41.116Z,8.65
2019-04-06T00:38:15.414Z,9.70
2019-04-06T00:40:49.458Z,10.23
2019-04-06T00:43:23.397Z,10.78
2019-04-06T00:45:57.680Z,10.45
2019-04-06T00:48:31.816Z,10.93
2019-04-06T00:51:06.147Z,11.80
2019-04-06T00:53:40.210Z,11.55
2019-04-06T00:56:14.267Z,12.33
2019-04-06T00:58:48.381Z,11.68
2019-04-06T01:01:22.806Z,12.53
2019-04-06T01:03:56.912Z,13.22
2019-04-06T01:06:31.086Z,14.05
2019-04-06T01:09:06.273Z,13.70
2019-04-06T01:11:40.455Z,15.65
2019-04-06T01:14:14.501Z,14.83
2019-04-06T01:16:48.615Z,16.52
2019-04-06T01:19:22.944Z,16.62
2019-04-06T01:21:56.985Z,16.60
2019-04-06T01:24:31.774Z,17.00
2019-04-06T01:27:06.124Z,18.23
2019-04-06T01:29:40.368Z,18.87
2019-04-06T01:32:14.306Z,19.25
2019-04-06T01:34:48.528Z,20.95
2019-04-06T01:37:22.491Z,20.43
2019-04-06T01:39:56.768Z,20.15
2019-04-06T01:42:30.930Z,20.62
2019-04-06T01:45:05.174Z,21.07
2019-04-06T01:47:39.350Z,22.13
2019-04-06T01:50:13.708Z,22.10
2019-04-06T01:52:47.976Z,22.48
2019-04-06T01:55:22.204Z,23.47
2019-04-06T01:57:56.645Z,24.70
2019-04-06T02:00:31.032Z,24.82
2019-04-06T02:03:05.071Z,25.30
2019-04-06T02:05:39.429Z,26.05
2019-04-06T02:08:13.702Z,25.12
2019-04-06T02:10:47.891Z,27.62
2019-04-06T02:13:22.053Z,25.45
2019-04-06T02:15:56.450Z,26.65
2019-04-06T02:18:30.446Z,26.23
2019-04-06T02:21:04.685Z,25.82
2019-04-06T02:23:38.942Z,26.33
2019-04-06T02:26:13.242Z,25.37
2019-04-06T02:28:47.452Z,25.40
2019-04-06T02:31:49.491Z,25.72
2019-04-06T02:34:32.310Z,25.83
2019-04-06T02:37:25.212Z,26.05
2019-04-06T02:40:17.858Z,25.97
2019-04-06T02:42:56.200Z,25.23
2019-04-06T02:45:30.113Z,25.57
2019-04-06T02:48:04.527Z,24.98
2019-04-06T02:50:39.004Z,25.68
2019-04-06T02:53:12.998Z,24.20
2019-04-06T02:55:47.154Z,26.57
2019-04-06T02:58:23.282Z,30.05
2019-04-06T03:00:57.197Z,30.08
2019-04-06T03:03:31.388Z,28.40
2019-04-06T03:06:05.690Z,30.77
2019-04-06T03:08:39.920Z,29.32
2019-04-06T03:11:14.009Z,29.37
2019-04-06T03:13:48.041Z,30.77
2019-04-06T03:16:22.254Z,29.07
2019-04-06T03:18:56.375Z,30.35
2019-04-06T03:21:30.531Z,29.45
2019-04-06T03:24:04.592Z,29.27
2019-04-06T03:26:38.829Z,29.05
2019-04-06T03:29:12.983Z,31.25
2019-04-06T03:31:47.284Z,30.23
2019-04-06T03:34:22.549Z,29.52
2019-04-06T03:36:57.949Z,29.12
2019-04-06T03:39:31.604Z,28.95
2019-04-06T03:42:05.598Z,27.90
2019-04-06T03:44:39.845Z,27.87
2019-04-06T03:47:14.205Z,27.25
2019-04-06T03:49:48.423Z,27.00
2019-04-06T03:52:22.662Z,25.62
2019-04-06T03:54:56.534Z,26.40
2019-04-06T03:57:30.580Z,25.02
2019-04-06T04:00:04.709Z,24.43
2019-04-06T04:02:38.601Z,25.32
2019-04-06T04:05:12.685Z,24.65
2019-04-06T04:07:46.589Z,23.95
2019-04-06T04:10:35.882Z,23.18
2019-04-06T04:13:10.160Z,22.60
2019-04-06T04:15:44.612Z,21.45
2019-04-06T04:18:19.051Z,22.32
2019-04-06T04:20:52.929Z,22.40
2019-04-06T04:23:27.801Z,21.42
2019-04-06T04:26:01.943Z,22.30
2019-04-06T04:28:35.791Z,21.68
2019-04-06T04:31:09.805Z,21.52
2019-04-06T04:33:43.825Z,21.40
2019-04-06T04:36:18.168Z,20.45
2019-04-06T04:38:52.609Z,20.55
2019-04-06T04:41:26.855Z,20.57
2019-04-06T04:44:01.091Z,20.65
2019-04-06T04:46:35.052Z,19.57
2019-04-06T04:49:09.263Z,19.23
2019-04-06T04:51:43.227Z,18.73
2019-04-06T04:54:17.321Z,18.37
2019-04-06T04:56:51.642Z,18.10
2019-04-06T04:59:25.736Z,17.37
2019-04-06T05:02:00.198Z,18.02
2019-04-06T05:04:34.146Z,38.80
2019-04-06T05:07:08.190Z,23.67
2019-04-06T05:09:42.386Z,25.27
2019-04-06T05:12:16.199Z,23.07
2019-04-06T05:15:04.094Z,21.65
2019-04-06T05:17:38.280Z,20.25
2019-04-06T05:20:13.737Z,20.25
2019-04-06T05:22:47.796Z,20.52
2019-04-06T05:25:21.994Z,20.10
2019-04-06T05:27:56.292Z,19.48
2019-04-06T05:30:30.537Z,17.25
2019-04-06T05:33:04.732Z,18.02
2019-04-06T05:35:38.748Z,17.90
2019-04-06T05:38:12.986Z,17.40
2019-04-06T05:40:46.714Z,16.80
2019-04-06T05:43:21.077Z,16.35
2019-04-06T05:45:55.084Z,15.98
2019-04-06T05:48:28.916Z,15.10
2019-04-06T05:51:02.743Z,15.40
2019-04-06T05:53:36.555Z,15.70
2019-04-06T05:56:10.868Z,14.83
2019-04-06T05:58:44.928Z,14.65
2019-04-06T06:01:19.169Z,15.25
2019-04-06T06:03:53.251Z,14.78
2019-04-06T06:06:27.498Z,13.48
2019-04-06T06:09:02.062Z,13.43
2019-04-06T06:11:36.240Z,14.10
2019-04-06T06:14:10.499Z,13.93
2019-04-06T06:16:44.829Z,13.08
2019-04-06T06:19:19.153Z,12.13
2019-04-06T06:21:53.399Z,13.32
2019-04-06T06:24:27.645Z,12.00
2019-04-06T06:27:01.548Z,11.55
2019-04-06T06:29:35.767Z,12.93
2019-04-06T06:32:09.903Z,12.53
2019-04-06T06:34:44.156Z,12.10
2019-04-06T06:37:18.318Z,11.65
2019-04-06T06:39:52.799Z,11.48
2019-04-06T06:42:26.868Z,11.53
2019-04-06T06:45:01.242Z,11.43
2019-04-06T06:47:36.541Z,11.60
2019-04-06T06:50:10.943Z,11.10
2019-04-06T06:52:44.972Z,10.68
2019-04-06T06:55:19.155Z,10.53
2019-04-06T06:57:53.512Z,9.75
2019-04-06T07:00:27.329Z,9.75
2019-04-06T07:03:01.247Z,11.12
2019-04-06T07:05:35.330Z,10.13
2019-04-06T07:08:10.370Z,9.53
2019-04-06T07:10:44.375Z,10.25
2019-04-06T07:13:19.404Z,8.88
2019-04-06T07:15:53.496Z,9.38
2019-04-06T07:18:28.496Z,9.30
2019-04-06T07:21:02.740Z,9.20
2019-04-06T07:23:37.337Z,9.45
2019-04-06T07:26:11.471Z,9.13
2019-04-06T07:28:45.816Z,8.70
2019-04-06T07:31:20.207Z,8.55
2019-04-06T07:33:54.432Z,8.98
2019-04-06T07:36:31.840Z,9.18
2019-04-06T07:39:07.091Z,9.13
2019-04-06T07:41:41.131Z,8.83
2019-04-06T07:44:15.311Z,8.48
2019-04-06T07:46:49.359Z,8.73
2019-04-06T07:49:23.563Z,9.08
2019-04-06T07:51:57.653Z,9.10
2019-04-06T07:54:31.882Z,8.93
2019-04-06T07:57:05.993Z,9.40
2019-04-06T07:59:40.426Z,9.30
2019-04-06T08:02:14.500Z,8.38
2019-04-06T08:04:48.688Z,8.53
2019-04-06T08:07:22.882Z,8.18
2019-04-06T08:09:56.836Z,8.13
2019-04-06T08:12:31.109Z,8.00
2019-04-06T08:15:05.499Z,7.80
2019-04-06T08:17:39.746Z,7.65
2019-04-06T08:20:14.641Z,7.30
2019-04-06T08:22:49.227Z,7.70
2019-04-06T08:25:23.695Z,8.15
2019-04-06T08:28:01.041Z,7.50
2019-04-06T08:30:44.721Z,7.78
2019-04-06T08:33:11.146Z,7.60
2019-04-06T08:35:45.236Z,7.37
2019-04-06T08:38:20.868Z,7.78
2019-04-06T08:40:55.391Z,7.62
2019-04-06T08:43:29.391Z,7.12
2019-04-06T08:46:03.877Z,7.40
2019-04-06T08:48:38.316Z,6.92
2019-04-06T08:51:13.326Z,7.20
2019-04-06T08:53:47.246Z,7.10
2019-04-06T08:56:21.557Z,7.58
2019-04-06T08:58:55.492Z,8.05
2019-04-06T09:01:29.762Z,7.40
2019-04-06T09:04:04.056Z,7.55
2019-04-06T09:06:38.322Z,7.67
2019-04-06T09:09:12.725Z,7.45
2019-04-06T09:11:46.929Z,7.33
2019-04-06T09:14:21.113Z,7.65
2019-04-06T09:16:55.430Z,7.55
2019-04-06T09:19:30.010Z,7.67
2019-04-06T09:22:04.301Z,7.35
2019-04-06T09:24:38.496Z,7.55
2019-04-06T09:27:12.520Z,7.35
2019-04-06T09:29:47.002Z,7.92
2019-04-06T09:32:22.254Z,7.35
2019-04-06T09:34:56.829Z,7.92
2019-04-06T09:37:31.110Z,8.05
2019-04-06T09:40:05.363Z,7.50
2019-04-06T09:42:39.841Z,8.20
2019-04-06T09:45:31.625Z,8.45
2019-04-06T09:48:24.683Z,8.20
2019-04-06T09:51:23.790Z,8.48
2019-04-06T09:54:31.788Z,7.97
2019-04-06T09:57:27.111Z,8.03
2019-04-06T10:00:26.915Z,7.62
2019-04-06T10:03:19.993Z,7.45
2019-04-06T10:06:09.984Z,7.33
2019-04-06T10:09:01.479Z,7.47
2019-04-06T10:11:50.804Z,7.70
2019-04-06T10:14:45.184Z,7.35
2019-04-06T10:17:37.039Z,6.45
2019-04-06T10:20:28.137Z,6.33
2019-04-06T10:23:19.435Z,7.22
2019-04-06T10:26:31.042Z,6.75
2019-04-06T10:29:17.630Z,6.55
2019-04-06T10:32:02.198Z,6.40
2019-04-06T10:34:53.775Z,6.83
2019-04-06T10:37:40.343Z,7.30
2019-04-06T10:40:39.613Z,7.60
2019-04-06T10:43:28.244Z,7.62
2019-04-06T10:46:09.551Z,7.35
2019-04-06T10:49:05.120Z,7.30
2019-04-06T10:51:56.642Z,7.00
2019-04-06T10:54:48.331Z,6.80
2019-04-06T10:57:35.746Z,7.22
2019-04-06T11:00:27.435Z,7.03
2019-04-06T11:03:09.743Z,6.95
2019-04-06T11:05:55.734Z,5.90
2019-04-06T11:08:57.884Z,6.75
2019-04-06T11:11:59.744Z,6.50
2019-04-06T11:14:52.800Z,6.83
2019-04-06T11:17:45.548Z,6.37
2019-04-06T11:23:31.152Z,6.12
2019-04-06T11:26:16.453Z,6.10
2019-04-06T11:29:21.356Z,6.12
2019-04-06T11:32:33.481Z,5.87
2019-04-06T11:35:24.474Z,6.22
2019-04-06T11:38:26.673Z,6.40
2019-04-06T11:41:14.716Z,6.00
2019-04-06T11:44:10.584Z,5.78
2019-04-06T11:47:05.934Z,6.30
2019-04-06T11:49:57.868Z,6.20
2019-04-06T11:52:49.735Z,5.70
2019-04-06T11:55:40.604Z,5.87
2019-04-06T11:58:20.173Z,6.20
2019-04-06T12:01:19.356Z,5.78
2019-04-06T12:04:15.451Z,5.85
2019-04-06T12:07:17.309Z,5.65
2019-04-06T12:10:05.765Z,5.90
2019-04-06T12:12:50.766Z,5.90
2019-04-06T12:15:42.238Z,6.05
2019-04-06T12:18:40.871Z,6.15
2019-04-06T12:21:37.270Z,6.30
2019-04-06T12:24:36.017Z,6.20
2019-04-06T12:27:35.260Z,5.97
2019-04-06T12:30:39.172Z,5.78
2019-04-06T12:33:30.771Z,5.70
2019-04-06T12:36:22.645Z,5.90
2019-04-06T12:39:19.102Z,5.92
2019-04-06T12:42:10.780Z,5.87
2019-04-06T12:45:09.992Z,5.62
2019-04-06T12:48:12.061Z,5.90
2019-04-06T12:51:00.560Z,5.97
2019-04-06T12:53:56.635Z,5.60
2019-04-06T12:56:53.938Z,5.87
2019-04-06T12:59:50.002Z,5.83
2019-04-06T13:02:41.719Z,5.78
2019-04-06T13:05:37.972Z,5.97
2019-04-06T13:08:31.829Z,5.62
2019-04-06T13:11:27.011Z,6.50
2019-04-06T13:14:10.868Z,7.62
2019-04-06T13:16:56.909Z,7.08
2019-04-06T13:19:48.719Z,8.05
2019-04-06T13:22:46.008Z,9.10
2019-04-06T13:25:35.032Z,9.80
2019-04-06T13:28:26.656Z,9.38
2019-04-06T13:31:09.149Z,10.63
2019-04-06T13:36:52.919Z,11.05
2019-04-06T13:42:38.695Z,10.50
2019-04-06T13:45:34.716Z,11.53
2019-04-06T13:48:25.676Z,10.13
2019-04-06T13:51:08.182Z,11.08
2019-04-06T13:53:52.196Z,10.88
2019-04-06T13:56:47.838Z,12.07
2019-04-06T13:59:54.258Z,12.25
2019-04-06T14:02:59.565Z,11.95
2019-04-06T14:05:49.921Z,12.07
2019-04-06T14:08:45.821Z,13.72
2019-04-06T14:11:44.615Z,14.23
2019-04-06T14:14:43.714Z,14.38
2019-04-06T14:17:41.837Z,12.30
2019-04-06T14:20:26.104Z,14.47
2019-04-06T14:23:10.131Z,17.07
2019-04-06T14:26:14.501Z,17.73
2019-04-06T14:28:58.415Z,15.72
2019-04-06T14:31:49.765Z,16.05
2019-04-06T14:34:57.544Z,18.27
2019-04-06T14:37:49.670Z,16.30
2019-04-06T14:40:54.792Z,15.35
2019-04-06T14:43:38.749Z,16.12
2019-04-06T14:46:35.409Z,15.05
2019-04-06T14:49:34.602Z,16.25
2019-04-06T14:52:34.072Z,15.80
2019-04-06T14:55:24.863Z,15.98
2019-04-06T14:58:17.742Z,16.55
2019-04-06T15:01:10.741Z,16.10
2019-04-06T15:04:06.627Z,15.78
2019-04-06T15:07:09.554Z,16.73
2019-04-06T15:09:43.962Z,16.15
2019-04-06T15:12:36.711Z,16.42
2019-04-06T15:15:32.291Z,15.83
2019-04-06T15:18:35.275Z,16.73
2019-04-06T15:21:26.012Z,16.70
2019-04-06T15:24:19.036Z,16.17
2019-04-06T15:27:21.106Z,15.78
2019-04-06T15:30:17.234Z,16.48
2019-04-06T15:33:19.305Z,16.87
2019-04-06T15:36:01.935Z,16.52
2019-04-06T15:39:04.375Z,16.97
2019-04-06T15:42:09.678Z,16.95
2019-04-06T15:45:05.205Z,18.00
2019-04-06T15:47:57.062Z,16.82
2019-04-06T15:50:47.026Z,16.75
2019-04-06T15:53:36.504Z,16.75
2019-04-06T15:56:24.100Z,17.90
2019-04-06T15:59:20.847Z,18.23
2019-04-06T16:02:03.121Z,18.25
2019-04-06T16:07:37.544Z,18.77
2019-04-06T16:10:39.619Z,20.40
2019-04-06T16:13:20.710Z,25.97
2019-04-06T16:16:12.243Z,20.35
2019-04-06T16:19:21.257Z,20.62
2019-04-06T16:22:01.972Z,21.80
2019-04-06T16:24:43.424Z,20.62
2019-04-06T16:27:42.615Z,21.65
2019-04-06T16:30:35.038Z,21.50
2019-04-06T16:33:27.790Z,21.55
2019-04-06T16:36:20.890Z,21.33
2019-04-06T16:39:13.762Z,21.48
2019-04-06T16:42:09.515Z,20.25
2019-04-06T16:44:55.010Z,21.35
2019-04-06T16:48:00.681Z,20.57
2019-04-06T16:50:53.558Z,21.20
2019-04-06T16:53:52.197Z,22.40
2019-04-06T16:56:34.265Z,22.13
2019-04-06T16:59:39.328Z,22.52
2019-04-06T17:02:35.294Z,22.00
2019-04-06T17:05:19.728Z,24.00
2019-04-06T17:08:11.879Z,25.12
2019-04-06T17:11:19.951Z,26.17
2019-04-06T17:14:06.037Z,23.83
2019-04-06T17:17:05.248Z,23.30
2019-04-06T17:19:56.869Z,25.40
2019-04-06T17:22:54.031Z,25.25
2019-04-06T17:25:55.763Z,24.43
2019-04-06T17:28:54.938Z,23.05
2019-04-06T17:32:06.486Z,25.12
2019-04-06T17:34:59.426Z,26.10
2019-04-06T17:38:01.558Z,26.20
2019-04-06T17:40:57.269Z,25.32
2019-04-06T17:44:02.517Z,26.33
2019-04-06T17:46:48.096Z,26.50
2019-04-06T17:49:44.361Z,24.37
2019-04-06T17:52:42.780Z,25.55
2019-04-06T17:55:38.857Z,24.90
2019-04-06T17:58:20.132Z,24.67
2019-04-06T18:01:01.753Z,24.10
2019-04-06T18:03:50.935Z,23.23
2019-04-06T18:06:36.798Z,22.27
2019-04-06T18:09:39.385Z,22.67
2019-04-06T18:12:35.311Z,23.07
2019-04-06T18:15:09.863Z,22.58
2019-04-06T18:17:44.531Z,22.32
2019-04-06T18:20:19.638Z,21.95
2019-04-06T18:22:53.828Z,22.50
2019-04-06T18:25:27.966Z,22.07
2019-04-06T18:28:02.093Z,20.92
2019-04-06T18:30:36.313Z,22.13
2019-04-06T18:33:16.628Z,22.25
2019-04-06T18:35:51.458Z,22.17
2019-04-06T18:38:36.444Z,21.97
2019-04-06T18:41:11.344Z,22.20
2019-04-06T18:43:45.622Z,21.00
2019-04-06T18:46:20.043Z,21.82
2019-04-06T18:48:54.333Z,21.45
2019-04-06T18:51:28.748Z,21.30
2019-04-06T18:54:03.088Z,21.62
2019-04-06T18:56:37.565Z,20.20
2019-04-06T18:59:12.992Z,21.20
2019-04-06T19:01:47.110Z,20.65
2019-04-06T19:04:21.459Z,20.77
2019-04-06T19:06:55.736Z,21.45
2019-04-06T19:09:30.428Z,20.88
2019-04-06T19:12:04.680Z,20.68
2019-04-06T19:14:39.387Z,19.82
2019-04-06T19:17:14.086Z,20.70
2019-04-06T19:19:48.191Z,21.07
2019-04-06T19:22:22.827Z,21.52
2019-04-06T19:24:56.928Z,21.70
2019-04-06T19:27:31.014Z,21.70
2019-04-06T19:30:06.327Z,22.75
2019-04-06T19:32:40.598Z,22.27
2019-04-06T19:35:14.870Z,21.52
2019-04-06T19:37:49.660Z,20.85
2019-04-06T19:40:23.835Z,21.85
2019-04-06T19:42:57.939Z,21.87
2019-04-06T19:45:32.450Z,21.50
2019-04-06T19:48:06.701Z,21.30
2019-04-06T19:50:40.822Z,21.87
2019-04-06T19:53:15.068Z,21.85
2019-04-06T19:55:49.312Z,22.75
2019-04-06T19:58:24.085Z,22.10
2019-04-06T20:00:58.682Z,21.82
2019-04-06T20:03:36.989Z,22.45
2019-04-06T20:06:08.930Z,22.30
2019-04-06T20:08:42.950Z,22.02
2019-04-06T20:11:17.685Z,22.87
2019-04-06T20:13:51.825Z,21.87
2019-04-06T20:16:26.423Z,22.42
2019-04-06T20:19:00.585Z,21.80
2019-04-06T20:21:34.737Z,21.97
2019-04-06T20:24:10.550Z,22.77
2019-04-06T20:26:44.612Z,22.48
2019-04-06T20:29:18.552Z,21.87
2019-04-06T20:31:53.227Z,22.42
2019-04-06T20:34:27.839Z,22.82
2019-04-06T20:37:02.084Z,22.65
2019-04-06T20:39:36.210Z,25.40
2019-04-06T20:42:10.226Z,26.20
2019-04-06T20:44:44.381Z,26.85
2019-04-06T20:47:18.950Z,25.75
2019-04-06T20:49:52.894Z,25.60
2019-04-06T20:52:27.070Z,25.88
2019-04-06T20:55:01.581Z,26.05
2019-04-06T20:57:36.334Z,26.37
2019-04-06T21:00:12.053Z,26.35
2019-04-06T21:02:46.473Z,26.70
2019-04-06T21:05:20.741Z,25.60
2019-04-06T21:07:55.451Z,25.90
2019-04-06T21:10:29.856Z,27.02
2019-04-06T21:13:04.349Z,25.88
2019-04-06T21:15:38.520Z,26.15
2019-04-06T21:18:12.558Z,26.05
2019-04-06T21:20:46.756Z,25.62
2019-04-06T21:23:20.964Z,25.15
2019-04-06T21:25:55.665Z,25.88
2019-04-06T21:28:29.941Z,25.10
2019-04-06T21:31:04.370Z,25.52
2019-04-06T21:33:38.748Z,25.57
2019-04-06T21:36:12.986Z,24.87
2019-04-06T21:38:47.401Z,25.48
2019-04-06T21:41:21.703Z,26.62
2019-04-06T21:43:56.830Z,26.23
2019-04-06T21:46:31.893Z,26.45
2019-04-06T21:49:06.219Z,26.33
2019-04-06T21:51:40.348Z,26.73
2019-04-06T21:54:15.043Z,25.70
2019-04-06T21:56:50.115Z,27.13
2019-04-06T21:59:24.543Z,27.52
2019-04-06T22:01:59.095Z,26.27
2019-04-06T22:04:33.686Z,27.35
2019-04-06T22:07:08.834Z,26.17
2019-04-06T22:09:43.952Z,26.87
2019-04-06T22:12:18.101Z,26.80
2019-04-06T22:14:52.214Z,27.30
2019-04-06T22:17:26.400Z,27.62
2019-04-06T22:20:00.769Z,26.50
2019-04-06T22:22:35.528Z,27.35
2019-04-06T22:25:09.749Z,27.32
2019-04-06T22:27:43.822Z,27.90
2019-04-06T22:30:19.761Z,28.32
2019-04-06T22:32:54.170Z,29.10
2019-04-06T22:35:28.467Z,28.27
2019-04-06T22:38:02.418Z,28.85
2019-04-06T22:40:37.123Z,27.93
2019-04-06T22:43:10.979Z,28.52
2019-04-06T22:45:45.386Z,28.75
2019-04-06T22:48:19.703Z,28.90
2019-04-06T22:50:54.164Z,28.52
2019-04-06T22:53:28.458Z,29.50
2019-04-06T22:56:02.508Z,29.42
2019-04-06T22:58:36.881Z,30.10
2019-04-06T23:01:14.699Z,30.60
2019-04-06T23:04:05.595Z,31.15
2019-04-06T23:06:49.830Z,30.85
2019-04-06T23:09:24.152Z,31.12
2019-04-06T23:11:58.525Z,31.52
2019-04-06T23:14:32.867Z,32.40
2019-04-06T23:17:07.255Z,33.73
2019-04-06T23:19:41.993Z,34.35
2019-04-06T23:22:16.094Z,36.10
2019-04-06T23:24:50.336Z,34.67
2019-04-06T23:27:24.526Z,33.65
2019-04-06T23:29:58.810Z,34.70
2019-04-06T23:32:33.150Z,33.63
2019-04-06T23:35:07.294Z,34.23
2019-04-06T23:37:41.781Z,33.25
2019-04-06T23:40:16.749Z,33.58
2019-04-06T23:42:51.456Z,33.40
2019-04-06T23:45:26.237Z,33.70
2019-04-06T23:48:00.407Z,33.73
2019-04-06T23:50:34.640Z,36.13
2019-04-06T23:53:10.107Z,34.05
2019-04-06T23:55:44.620Z,35.10
2019-04-06T23:58:19.033Z,35.17
